Preise (Charter):

Flugzeuge Normalpreis ab 12 h/Jahr -5% ab 20 h/Jahr -8%

Cessna 172 SP

D-ETTU

234,00 € 222,30 € 215,28 €

Mooney Ovation 2 GX 

D-ETTB

 379,00 €  360,05 € 349,68 € 

Reservierungen können Sie über unser Buchungssystem vornehmen.

Neben unseren Flugzeugen können wir über unser Netzwerk weitere Flugzeuge vermitteln.

Für weitere Informationen füllen Sie bitte das Kontaktformular aus oder wenden sich direkt an:

Christian Sabionski

Tel.:   +49 (0)172 8140311

Flugwetter Augsburg

[source: ADDS]
METAR
EDMA 190220Z AUTO VRB01KT 9999 // OVC050/// 11/10 Q1014 =
TAF EDMA 181700Z 1818/1903 27006KT CAVOK BECMG 1818/1820 19004KT
TAF
TAF EDMA 181700Z 1818/1903 27006KT CAVOK BECMG 1818/1820 19004KT =
Cookies erleichtern die Bereitstellung unserer Dienste. Mit der Nutzung unserer Dienste erklären Sie sich damit einverstanden, dass wir Cookies verwenden.
Weitere Informationen Ok